Time;durP1;ratioP1;P1;durP2;ratioP2;P2;SDS_P1;SDS_P2;PMS_P1;PMS_P2;Temp;Humidity;BMP_temperature;BMP_pressure;BME280_temperature;BME280_humidity;BME280_pressure;Samples;Min_cycle;Max_cycle;Signal;HPM_P1;HPM_P2
2024/01/04 00:01:13;;;;;;;4.13;0.50;;;5.10;81.80;;;;;;5006266;28;20076;-72
2024/01/04 00:03:40;;;;;;;3.87;0.43;;;5.00;81.90;;;;;;5035321;28;20507;-72
2024/01/04 00:06:06;;;;;;;3.73;0.30;;;5.00;82.00;;;;;;5045154;28;20186;-75
2024/01/04 00:08:32;;;;;;;5.37;0.57;;;5.00;81.70;;;;;;5028122;28;20057;-73
2024/01/04 00:10:58;;;;;;;1.97;0.30;;;5.00;80.90;;;;;;5030127;28;20060;-72
2024/01/04 00:13:24;;;;;;;3.43;0.40;;;5.00;81.20;;;;;;5028638;28;20049;-75
2024/01/04 00:15:50;;;;;;;3.07;0.30;;;5.00;81.20;;;;;;5022144;28;20045;-72
2024/01/04 00:18:15;;;;;;;2.53;0.50;;;5.00;80.80;;;;;;5026062;28;20078;-74
2024/01/04 00:20:42;;;;;;;6.90;0.63;;;5.00;80.80;;;;;;5025864;28;20361;-72
2024/01/04 00:23:07;;;;;;;3.67;0.40;;;5.00;79.90;;;;;;5034510;28;20168;-72
2024/01/04 00:25:33;;;;;;;7.13;0.70;;;5.00;80.20;;;;;;5033088;28;20191;-73
2024/01/04 00:28:00;;;;;;;9.30;0.53;;;5.00;80.50;;;;;;5015242;28;20054;-72
2024/01/04 00:30:25;;;;;;;6.37;0.90;;;5.00;80.60;;;;;;5025682;28;20424;-73
2024/01/04 00:32:51;;;;;;;6.47;0.67;;;4.90;80.60;;;;;;5024350;28;20041;-72
2024/01/04 00:35:17;;;;;;;4.53;0.60;;;4.90;80.90;;;;;;5024434;28;20045;-73
2024/01/04 00:37:43;;;;;;;4.80;0.67;;;4.90;80.90;;;;;;5030113;28;20049;-74
2024/01/04 00:40:09;;;;;;;6.90;0.70;;;4.90;80.90;;;;;;5044492;28;20053;-73
2024/01/04 00:42:35;;;;;;;6.53;1.07;;;4.80;80.90;;;;;;5043927;28;20056;-73
2024/01/04 00:45:01;;;;;;;3.17;0.63;;;4.80;80.40;;;;;;5043542;28;20053;-73
2024/01/04 00:47:27;;;;;;;5.20;0.50;;;4.70;80.50;;;;;;5006785;28;20096;-72
2024/01/04 00:49:52;;;;;;;4.27;0.60;;;4.70;80.30;;;;;;5027511;28;20400;-74
2024/01/04 00:52:18;;;;;;;2.67;0.50;;;4.70;80.40;;;;;;5034793;28;20084;-73
2024/01/04 00:54:44;;;;;;;3.30;0.40;;;4.70;80.40;;;;;;5043531;28;20056;-73
2024/01/04 00:57:09;;;;;;;4.13;0.37;;;4.70;78.60;;;;;;5015919;28;20052;-72
2024/01/04 00:59:35;;;;;;;4.03;0.50;;;4.70;79.30;;;;;;5035398;28;20565;-72
2024/01/04 01:02:01;;;;;;;5.30;0.30;;;4.70;79.60;;;;;;5051233;28;20132;-73
2024/01/04 01:04:26;;;;;;;4.13;0.40;;;4.70;79.60;;;;;;5049465;28;20171;-73
2024/01/04 01:06:52;;;;;;;6.03;0.30;;;4.60;79.30;;;;;;5048356;28;20433;-76
2024/01/04 01:09:18;;;;;;;3.13;0.50;;;4.60;78.80;;;;;;5046165;28;20068;-72
2024/01/04 01:11:43;;;;;;;4.87;0.67;;;4.60;78.80;;;;;;5042778;28;20057;-73
2024/01/04 01:14:09;;;;;;;3.30;0.20;;;4.60;79.10;;;;;;5032915;28;20502;-74
2024/01/04 01:16:35;;;;;;;9.33;0.57;;;4.60;78.90;;;;;;5041350;28;20064;-72
2024/01/04 01:19:02;;;;;;;5.20;0.57;;;4.60;79.30;;;;;;5039124;28;20041;-73
2024/01/04 01:21:28;;;;;;;7.67;0.90;;;4.50;79.40;;;;;;5048181;28;20057;-72
2024/01/04 01:23:54;;;;;;;2.93;0.60;;;4.50;79.70;;;;;;5048775;28;20055;-74
2024/01/04 01:26:20;;;;;;;6.30;0.80;;;4.50;79.80;;;;;;5047826;28;20053;-72
2024/01/04 01:28:45;;;;;;;3.67;0.37;;;4.50;79.90;;;;;;5035294;28;20054;-73
2024/01/04 01:31:11;;;;;;;9.00;0.80;;;4.50;80.00;;;;;;5057754;28;20056;-72
2024/01/04 01:33:40;;;;;;;3.60;0.60;;;4.50;80.10;;;;;;5056142;28;20107;-72
2024/01/04 01:36:06;;;;;;;8.73;0.70;;;4.40;80.00;;;;;;5029641;28;20049;-73
2024/01/04 01:38:32;;;;;;;4.73;0.70;;;4.40;80.00;;;;;;5031379;28;20049;-72
2024/01/04 01:40:58;;;;;;;3.77;0.60;;;4.40;80.10;;;;;;5033146;28;20115;-73
2024/01/04 01:43:24;;;;;;;3.77;0.70;;;4.30;80.30;;;;;;5032050;28;20059;-73
2024/01/04 01:45:49;;;;;;;6.47;0.80;;;4.30;80.30;;;;;;5043137;28;20094;-73
2024/01/04 01:48:15;;;;;;;3.47;0.70;;;4.30;80.30;;;;;;5028473;28;20053;-73
2024/01/04 01:50:41;;;;;;;4.43;0.77;;;4.20;80.40;;;;;;5047898;28;20617;-73
2024/01/04 01:53:07;;;;;;;7.13;0.63;;;4.20;80.30;;;;;;5023512;28;20659;-72
2024/01/04 01:55:33;;;;;;;3.33;0.50;;;4.20;80.30;;;;;;5048464;28;20123;-73
2024/01/04 01:57:59;;;;;;;4.87;0.50;;;4.20;80.30;;;;;;5045518;28;20056;-73
2024/01/04 02:00:25;;;;;;;3.90;0.43;;;4.10;80.30;;;;;;5045103;28;20051;-72
2024/01/04 02:02:52;;;;;;;2.83;0.60;;;4.10;80.20;;;;;;5030115;28;20041;-74
2024/01/04 02:05:17;;;;;;;3.13;0.30;;;4.10;80.30;;;;;;5026385;28;20049;-74
2024/01/04 02:07:44;;;;;;;3.57;0.47;;;4.00;80.40;;;;;;5031131;28;20076;-73
2024/01/04 02:10:09;;;;;;;4.20;0.47;;;4.00;80.30;;;;;;5026738;28;20171;-72
2024/01/04 02:12:35;;;;;;;7.20;0.60;;;4.00;80.50;;;;;;5044906;28;20128;-73
2024/01/04 02:15:01;;;;;;;5.67;0.70;;;3.90;80.70;;;;;;5028306;28;20056;-72
2024/01/04 02:17:28;;;;;;;4.57;0.70;;;3.90;80.80;;;;;;5039258;28;20046;-72
2024/01/04 02:19:56;;;;;;;3.93;0.43;;;3.90;80.90;;;;;;5042472;28;20446;-72
2024/01/04 02:22:22;;;;;;;6.17;0.40;;;3.80;81.10;;;;;;5038430;28;20083;-73
2024/01/04 02:24:48;;;;;;;3.63;0.50;;;3.70;81.10;;;;;;5031710;28;20075;-72
2024/01/04 02:27:14;;;;;;;4.97;0.67;;;3.70;81.00;;;;;;5029375;28;20056;-73
2024/01/04 02:29:40;;;;;;;3.73;0.57;;;3.70;81.10;;;;;;5030823;28;20041;-73
2024/01/04 02:32:06;;;;;;;6.23;0.70;;;3.70;81.10;;;;;;5046966;28;20369;-73
2024/01/04 02:34:32;;;;;;;2.70;0.53;;;3.70;81.10;;;;;;5059262;28;20059;-73
2024/01/04 02:36:58;;;;;;;3.80;0.57;;;3.70;80.70;;;;;;5043611;28;20050;-72
2024/01/04 02:39:23;;;;;;;2.77;0.63;;;3.70;80.90;;;;;;5009570;28;20068;-73
2024/01/04 02:41:49;;;;;;;4.77;0.60;;;3.70;80.60;;;;;;5046598;28;20045;-73
2024/01/04 02:44:15;;;;;;;3.77;0.50;;;3.70;80.70;;;;;;5051757;28;20345;-73
2024/01/04 02:46:41;;;;;;;2.93;0.57;;;3.70;80.80;;;;;;5036806;28;20079;-73
2024/01/04 02:49:07;;;;;;;3.30;0.47;;;3.70;80.70;;;;;;5037393;28;20056;-73
2024/01/04 02:51:33;;;;;;;2.63;0.30;;;3.60;80.80;;;;;;5047597;28;20053;-72
2024/01/04 02:53:59;;;;;;;5.53;0.90;;;3.60;80.70;;;;;;5032160;28;20066;-72
2024/01/04 02:56:25;;;;;;;3.97;0.60;;;3.60;80.80;;;;;;5041651;28;20056;-72
2024/01/04 02:58:51;;;;;;;4.03;0.67;;;3.60;80.80;;;;;;5041861;28;20122;-74
2024/01/04 03:01:23;;;;;;;3.07;0.60;;;3.60;80.80;;;;;;5043828;28;20102;-73
2024/01/04 03:03:55;;;;;;;3.00;0.50;;;3.60;80.70;;;;;;5041702;28;20057;-72
2024/01/04 03:06:30;;;;;;;3.67;0.60;;;3.60;80.80;;;;;;5008798;28;20049;-74
2024/01/04 03:08:56;;;;;;;6.23;0.40;;;3.50;80.80;;;;;;5028570;28;20048;-72
2024/01/04 03:11:22;;;;;;;5.30;0.50;;;3.50;80.80;;;;;;5045635;28;20404;-74
2024/01/04 03:13:48;;;;;;;3.43;0.60;;;3.50;80.70;;;;;;5037342;28;20060;-73
2024/01/04 03:16:19;;;;;;;3.70;0.50;;;3.50;80.70;;;;;;5023363;28;20496;-73
2024/01/04 03:18:44;;;;;;;5.55;0.60;;;3.50;80.90;;;;;;5047068;28;20556;-74
2024/01/04 03:21:10;;;;;;;3.43;0.80;;;3.50;81.00;;;;;;5025079;28;20133;-73
2024/01/04 03:23:36;;;;;;;2.37;0.40;;;3.50;81.10;;;;;;5038128;28;20060;-74
2024/01/04 03:26:01;;;;;;;3.37;0.47;;;3.50;81.00;;;;;;5036298;28;20563;-74
2024/01/04 03:28:27;;;;;;;7.87;0.70;;;3.50;81.10;;;;;;5046249;28;20087;-73
2024/01/04 03:30:52;;;;;;;7.97;0.80;;;3.50;81.10;;;;;;5020226;28;20527;-75
2024/01/04 03:33:18;;;;;;;4.40;0.70;;;3.60;81.00;;;;;;5040356;28;20424;-74
2024/01/04 03:35:44;;;;;;;3.47;0.50;;;3.60;81.20;;;;;;5021091;28;20560;-73
2024/01/04 03:38:10;;;;;;;4.47;0.50;;;3.60;81.20;;;;;;5041202;28;20041;-73
2024/01/04 03:40:35;;;;;;;6.67;0.50;;;3.60;81.10;;;;;;5028859;28;20498;-73
2024/01/04 03:43:02;;;;;;;4.80;0.37;;;3.60;81.00;;;;;;5007835;28;20489;-73
2024/01/04 03:45:28;;;;;;;3.20;0.40;;;3.50;80.80;;;;;;5016514;28;20057;-73
2024/01/04 03:47:54;;;;;;;5.40;0.50;;;3.50;80.60;;;;;;5021678;28;20045;-73
2024/01/04 03:50:19;;;;;;;5.60;0.40;;;3.50;80.80;;;;;;5013131;28;20041;-72
2024/01/04 03:52:45;;;;;;;3.83;0.33;;;3.50;80.50;;;;;;5034820;28;20045;-74
2024/01/04 03:55:11;;;;;;;4.40;0.50;;;3.50;80.70;;;;;;5007298;28;20136;-74
2024/01/04 03:57:36;;;;;;;4.33;0.60;;;3.50;80.80;;;;;;5032939;28;20138;-73
2024/01/04 04:00:03;;;;;;;2.67;0.57;;;3.50;80.90;;;;;;5028844;28;20058;-73
2024/01/04 04:02:28;;;;;;;2.40;0.30;;;3.50;80.90;;;;;;5029507;28;20473;-73
2024/01/04 04:04:57;;;;;;;2.73;0.50;;;3.50;80.90;;;;;;5044136;28;20116;-74
2024/01/04 04:07:24;;;;;;;4.43;0.80;;;3.40;81.00;;;;;;5025421;28;20064;-74
2024/01/04 04:09:49;;;;;;;3.93;0.60;;;3.40;81.10;;;;;;5044063;28;20049;-73
2024/01/04 04:12:15;;;;;;;4.20;0.57;;;3.30;81.20;;;;;;5045026;28;20052;-73
2024/01/04 04:14:41;;;;;;;4.13;0.43;;;3.30;81.20;;;;;;5036204;28;20072;-72
2024/01/04 04:17:07;;;;;;;7.87;0.70;;;3.30;81.30;;;;;;5010792;28;20395;-74
2024/01/04 04:19:33;;;;;;;3.87;0.77;;;3.30;81.40;;;;;;5008988;28;20379;-73
2024/01/04 04:21:59;;;;;;;5.27;0.70;;;3.30;81.50;;;;;;5026683;28;20045;-73
2024/01/04 04:24:24;;;;;;;5.07;0.80;;;3.40;81.50;;;;;;5026246;28;20049;-73
2024/01/04 04:26:50;;;;;;;5.30;0.70;;;3.40;81.60;;;;;;5034780;28;20045;-73
2024/01/04 04:29:16;;;;;;;3.00;0.60;;;3.40;81.60;;;;;;5016840;28;20074;-73
2024/01/04 04:31:41;;;;;;;5.27;0.63;;;3.40;81.70;;;;;;5032267;28;20095;-73
2024/01/04 04:34:07;;;;;;;7.23;0.80;;;3.40;81.70;;;;;;5061364;28;20044;-73
2024/01/04 04:36:33;;;;;;;4.07;0.70;;;3.40;81.80;;;;;;5049594;28;20052;-73
2024/01/04 04:39:02;;;;;;;2.63;0.50;;;3.40;81.80;;;;;;5017224;28;20562;-75
2024/01/04 04:41:28;;;;;;;2.60;0.50;;;3.30;81.80;;;;;;5032874;28;20525;-75
2024/01/04 04:44:11;;;;;;;3.50;0.60;;;3.30;81.80;;;;;;5047418;28;20128;-73
2024/01/04 04:46:37;;;;;;;2.57;0.33;;;3.30;81.80;;;;;;5025080;28;20042;-73
2024/01/04 04:49:02;;;;;;;3.97;0.60;;;3.30;81.80;;;;;;5037432;28;20111;-74
2024/01/04 04:51:28;;;;;;;5.93;0.60;;;3.30;81.70;;;;;;5032401;28;20103;-73
2024/01/04 04:53:54;;;;;;;7.00;0.80;;;3.30;81.70;;;;;;5036699;28;20056;-74
2024/01/04 04:56:19;;;;;;;5.10;0.70;;;3.30;81.80;;;;;;5044641;28;20043;-74
2024/01/04 04:58:45;;;;;;;5.63;0.70;;;3.30;81.80;;;;;;5035209;28;20040;-73
2024/01/04 05:01:12;;;;;;;4.53;0.60;;;3.30;81.80;;;;;;5044037;28;20340;-75
2024/01/04 05:03:38;;;;;;;4.37;0.70;;;3.30;81.70;;;;;;5026990;28;20489;-73
2024/01/04 05:06:07;;;;;;;3.20;0.67;;;3.30;81.80;;;;;;5034973;28;20104;-73
2024/01/04 05:08:33;;;;;;;5.80;0.70;;;3.20;81.60;;;;;;5042904;28;20094;-73
2024/01/04 05:10:59;;;;;;;6.07;0.77;;;3.10;81.60;;;;;;5044382;28;20049;-73
2024/01/04 05:13:24;;;;;;;3.23;0.60;;;3.10;81.50;;;;;;5035806;28;20048;-73
2024/01/04 05:15:50;;;;;;;5.50;0.70;;;3.10;81.40;;;;;;5041223;28;20040;-74
2024/01/04 05:18:15;;;;;;;3.90;0.70;;;3.10;81.40;;;;;;5044067;28;20045;-73
2024/01/04 05:20:41;;;;;;;2.70;0.60;;;3.00;81.30;;;;;;5027005;28;20547;-73
2024/01/04 05:23:07;;;;;;;5.53;0.70;;;3.00;81.30;;;;;;5043130;28;20124;-73
2024/01/04 05:25:36;;;;;;;6.57;0.60;;;3.00;81.30;;;;;;5032677;28;20152;-73
2024/01/04 05:28:02;;;;;;;5.80;0.83;;;2.90;81.40;;;;;;5041329;28;20106;-73
2024/01/04 05:30:28;;;;;;;4.87;0.50;;;2.90;81.40;;;;;;5044197;28;20041;-73
2024/01/04 05:32:53;;;;;;;6.77;0.70;;;3.00;81.50;;;;;;5047845;28;20059;-73
2024/01/04 05:35:20;;;;;;;4.57;0.53;;;3.00;81.40;;;;;;5037875;28;20166;-74
2024/01/04 05:37:45;;;;;;;4.90;0.60;;;3.00;81.20;;;;;;5042155;28;20148;-73
2024/01/04 05:40:11;;;;;;;3.87;0.50;;;3.00;81.10;;;;;;5041776;28;20128;-74
2024/01/04 05:42:37;;;;;;;3.83;0.60;;;3.00;81.10;;;;;;5045844;28;20519;-73
2024/01/04 05:45:04;;;;;;;3.67;0.40;;;3.00;81.00;;;;;;5037893;28;20045;-73
2024/01/04 05:47:30;;;;;;;4.27;0.67;;;3.00;81.00;;;;;;5043609;28;20067;-73
2024/01/04 05:49:56;;;;;;;2.07;0.37;;;2.90;81.00;;;;;;5048305;28;20045;-73
2024/01/04 05:52:22;;;;;;;3.63;0.53;;;2.90;81.00;;;;;;5046553;28;20076;-73
2024/01/04 05:54:47;;;;;;;3.50;0.70;;;2.80;81.00;;;;;;5035406;28;20042;-72
2024/01/04 05:57:13;;;;;;;3.63;0.50;;;2.80;81.00;;;;;;5046684;28;20064;-73
2024/01/04 05:59:39;;;;;;;3.10;0.37;;;2.80;81.10;;;;;;5048123;28;20048;-73
2024/01/04 06:02:05;;;;;;;3.53;0.50;;;2.80;81.00;;;;;;5047978;28;20049;-73
2024/01/04 06:04:31;;;;;;;4.10;0.40;;;2.70;81.00;;;;;;5047603;28;20047;-74
2024/01/04 06:06:57;;;;;;;3.83;0.40;;;2.60;81.10;;;;;;5047181;28;20127;-73
2024/01/04 06:09:22;;;;;;;2.90;0.40;;;2.60;81.20;;;;;;5048108;28;20048;-74
2024/01/04 06:11:50;;;;;;;3.83;0.40;;;2.70;81.20;;;;;;5029243;28;20063;-74
2024/01/04 06:14:16;;;;;;;2.43;0.33;;;2.60;81.20;;;;;;5046649;28;20254;-75
2024/01/04 06:16:42;;;;;;;3.57;0.43;;;2.60;81.20;;;;;;5046287;28;20045;-74
2024/01/04 06:19:07;;;;;;;3.70;0.33;;;2.50;81.10;;;;;;5037916;28;20107;-74
2024/01/04 06:21:33;;;;;;;4.33;0.40;;;2.50;81.20;;;;;;5040137;28;20055;-73
2024/01/04 06:23:59;;;;;;;5.43;0.80;;;2.50;81.10;;;;;;5047419;28;20064;-74
2024/01/04 06:26:25;;;;;;;3.47;0.60;;;2.50;81.20;;;;;;5045463;28;20044;-73
2024/01/04 06:28:50;;;;;;;3.87;0.30;;;2.40;81.20;;;;;;5028266;28;20041;-75
2024/01/04 06:31:16;;;;;;;6.93;0.60;;;2.40;81.20;;;;;;5048309;28;20048;-73
2024/01/04 06:33:42;;;;;;;4.07;0.50;;;2.40;81.40;;;;;;5041571;28;20045;-73
2024/01/04 06:36:08;;;;;;;3.33;0.40;;;2.40;81.40;;;;;;5046848;28;20500;-73
2024/01/04 06:38:36;;;;;;;5.80;0.60;;;2.40;81.40;;;;;;5045841;28;20048;-72
2024/01/04 06:41:03;;;;;;;4.37;0.53;;;2.40;81.50;;;;;;5046780;28;20072;-73
2024/01/04 06:43:30;;;;;;;5.37;0.63;;;2.30;81.40;;;;;;5036483;28;20045;-73
2024/01/04 06:45:57;;;;;;;6.93;0.90;;;2.30;81.40;;;;;;5036277;28;20049;-74
2024/01/04 06:48:23;;;;;;;6.43;0.80;;;2.30;81.40;;;;;;5036434;28;20052;-74
2024/01/04 06:50:49;;;;;;;5.20;0.73;;;2.20;81.40;;;;;;5046519;28;20074;-75
2024/01/04 06:53:15;;;;;;;4.47;0.50;;;2.20;81.40;;;;;;5043576;28;20048;-72
2024/01/04 06:55:41;;;;;;;4.77;0.83;;;2.20;81.40;;;;;;5044771;28;20049;-73
2024/01/04 06:58:09;;;;;;;2.77;0.70;;;2.10;81.40;;;;;;5039426;28;20091;-72
2024/01/04 07:00:35;;;;;;;2.17;0.53;;;2.10;81.50;;;;;;5046067;28;20045;-72
2024/01/04 07:03:01;;;;;;;4.97;0.60;;;2.00;81.50;;;;;;5041960;28;20041;-73
2024/01/04 07:05:26;;;;;;;4.73;0.60;;;2.00;81.60;;;;;;5044806;28;20048;-73
2024/01/04 07:07:52;;;;;;;4.87;0.70;;;2.00;81.50;;;;;;5042568;28;20114;-73
2024/01/04 07:10:18;;;;;;;5.93;0.60;;;2.00;81.50;;;;;;5040966;28;20059;-72
2024/01/04 07:12:43;;;;;;;6.90;0.70;;;1.90;81.60;;;;;;5043138;28;20041;-73
2024/01/04 07:15:10;;;;;;;2.90;0.57;;;1.90;81.70;;;;;;5031315;28;20087;-73
2024/01/04 07:17:36;;;;;;;3.70;0.50;;;1.90;81.60;;;;;;5040674;28;20096;-74
2024/01/04 07:20:03;;;;;;;4.00;0.60;;;1.90;81.70;;;;;;5047166;28;20455;-73
2024/01/04 07:22:29;;;;;;;3.33;0.60;;;1.80;81.60;;;;;;5011465;28;20148;-72
2024/01/04 07:24:56;;;;;;;6.47;0.60;;;1.80;81.70;;;;;;5037520;28;20128;-75
2024/01/04 07:27:22;;;;;;;6.10;0.77;;;1.80;81.70;;;;;;5038351;28;20057;-73
2024/01/04 07:29:48;;;;;;;5.77;0.50;;;1.70;81.70;;;;;;5018498;28;20239;-73
2024/01/04 07:32:18;;;;;;;3.10;0.77;;;1.70;81.70;;;;;;5026650;28;20067;-73
2024/01/04 07:34:46;;;;;;;2.50;0.60;;;1.70;81.80;;;;;;5028401;28;20373;-73
2024/01/04 07:37:11;;;;;;;3.70;0.60;;;1.70;81.80;;;;;;5033487;28;20038;-73
2024/01/04 07:39:37;;;;;;;5.30;0.70;;;1.60;81.80;;;;;;5045938;28;20041;-73
2024/01/04 07:42:03;;;;;;;8.13;0.83;;;1.60;81.80;;;;;;5001517;28;20064;-72
2024/01/04 07:44:29;;;;;;;8.53;1.63;;;1.60;81.80;;;;;;5053770;28;20066;-74
2024/01/04 07:46:55;;;;;;;4.40;1.40;;;1.60;81.90;;;;;;5038576;28;20041;-73
2024/01/04 07:49:21;;;;;;;6.90;1.60;;;1.60;82.00;;;;;;5027820;28;20098;-73
2024/01/04 07:51:46;;;;;;;5.03;1.23;;;1.60;82.10;;;;;;5036918;28;20045;-73
2024/01/04 07:54:12;;;;;;;3.60;1.20;;;1.60;82.00;;;;;;5023632;28;20069;-72
2024/01/04 07:56:38;;;;;;;4.37;0.97;;;1.70;82.20;;;;;;5026984;28;20585;-72
2024/01/04 07:59:04;;;;;;;6.43;1.00;;;1.70;82.10;;;;;;5028457;28;20508;-73
2024/01/04 08:01:30;;;;;;;9.47;1.10;;;1.60;82.10;;;;;;5026316;28;20037;-73
2024/01/04 08:03:56;;;;;;;6.93;1.10;;;1.70;82.10;;;;;;5045855;28;20103;-74
2024/01/04 08:06:21;;;;;;;3.90;1.03;;;1.60;82.10;;;;;;5010428;28;20034;-75
2024/01/04 08:08:47;;;;;;;7.03;0.93;;;1.70;82.20;;;;;;5036669;28;20403;-73
2024/01/04 08:11:13;;;;;;;6.30;1.17;;;1.70;82.30;;;;;;5034513;28;20095;-73
2024/01/04 08:13:38;;;;;;;3.27;1.10;;;1.70;82.20;;;;;;5034874;28;20051;-74
2024/01/04 08:16:04;;;;;;;3.30;0.67;;;1.70;82.20;;;;;;5035858;28;20149;-73
2024/01/04 08:18:31;;;;;;;7.07;1.20;;;1.80;82.30;;;;;;5034365;28;20044;-73
2024/01/04 08:20:56;;;;;;;5.20;0.87;;;1.80;82.30;;;;;;5014892;28;20099;-74
2024/01/04 08:23:22;;;;;;;7.07;1.10;;;1.80;82.40;;;;;;5017430;28;20049;-73
2024/01/04 08:25:48;;;;;;;4.83;0.93;;;1.90;82.50;;;;;;5035461;28;20055;-73
2024/01/04 08:28:14;;;;;;;7.53;1.13;;;2.00;82.50;;;;;;5037525;28;20107;-74
2024/01/04 08:30:39;;;;;;;6.73;1.13;;;2.00;82.50;;;;;;5020203;28;20542;-73
2024/01/04 08:33:05;;;;;;;5.67;1.00;;;2.10;82.60;;;;;;5043184;28;20041;-73
2024/01/04 08:35:31;;;;;;;5.57;0.73;;;2.10;82.60;;;;;;5006618;28;20485;-73
2024/01/04 08:37:57;;;;;;;5.27;0.87;;;2.20;82.70;;;;;;5016241;28;20405;-73
2024/01/04 08:40:22;;;;;;;3.97;0.70;;;2.20;82.70;;;;;;5014990;28;20045;-73
2024/01/04 08:42:48;;;;;;;6.13;0.73;;;2.30;82.60;;;;;;5040610;28;20522;-73
2024/01/04 08:45:14;;;;;;;5.77;1.03;;;2.30;82.60;;;;;;5036397;28;20053;-73
2024/01/04 08:47:40;;;;;;;3.90;0.90;;;2.40;82.60;;;;;;5027255;28;20048;-73
2024/01/04 08:50:06;;;;;;;4.53;0.83;;;2.40;82.50;;;;;;5026914;28;20041;-73
2024/01/04 08:52:32;;;;;;;4.70;0.70;;;2.50;82.60;;;;;;5028366;28;20118;-75
2024/01/04 08:54:58;;;;;;;3.77;0.83;;;2.70;82.70;;;;;;5036207;28;20053;-73
2024/01/04 08:57:24;;;;;;;5.30;0.73;;;3.10;82.90;;;;;;5041543;28;20037;-73
2024/01/04 08:59:50;;;;;;;2.47;0.60;;;3.30;82.70;;;;;;4998578;28;20057;-73
2024/01/04 09:02:16;;;;;;;4.83;0.67;;;3.60;82.50;;;;;;5043926;28;20488;-74
2024/01/04 09:04:42;;;;;;;4.27;0.50;;;3.60;82.20;;;;;;5045135;28;20044;-73
2024/01/04 09:07:08;;;;;;;3.33;0.77;;;3.60;82.00;;;;;;5044587;28;20447;-73
2024/01/04 09:09:37;;;;;;;3.27;0.30;;;3.50;81.80;;;;;;5042659;28;20698;-73
2024/01/04 09:12:03;;;;;;;2.93;0.50;;;3.30;81.80;;;;;;5048242;28;20119;-74
2024/01/04 09:14:30;;;;;;;3.50;0.50;;;3.30;81.70;;;;;;5048208;28;20072;-73
2024/01/04 09:16:56;;;;;;;3.07;0.50;;;3.10;81.70;;;;;;5033857;28;20123;-74
2024/01/04 09:19:21;;;;;;;5.30;0.60;;;3.10;81.70;;;;;;5038945;28;20501;-73
2024/01/04 09:21:49;;;;;;;5.87;1.00;;;3.00;81.70;;;;;;5030055;28;20099;-73
2024/01/04 09:24:17;;;;;;;3.87;0.60;;;2.90;81.80;;;;;;5048223;28;20081;-73
2024/01/04 09:26:43;;;;;;;4.63;0.47;;;2.90;81.80;;;;;;5010267;28;20072;-73
2024/01/04 09:29:10;;;;;;;3.33;0.60;;;2.80;81.80;;;;;;5046697;28;20132;-73
2024/01/04 09:31:37;;;;;;;5.20;0.70;;;2.80;81.90;;;;;;5057236;28;20040;-74
2024/01/04 09:34:03;;;;;;;6.23;0.47;;;2.80;82.00;;;;;;5058569;28;20037;-73
2024/01/04 09:36:29;;;;;;;8.20;1.03;;;2.90;82.00;;;;;;5047499;28;20508;-73
2024/01/04 09:38:55;;;;;;;4.67;0.70;;;2.90;82.10;;;;;;5048740;28;20120;-75
2024/01/04 09:41:30;;;;;;;5.50;0.77;;;3.00;82.10;;;;;;5015739;28;20049;-73
2024/01/04 09:44:03;;;;;;;4.70;1.03;;;3.00;82.10;;;;;;5047804;28;20038;-73
2024/01/04 09:46:40;;;;;;;3.03;0.90;;;3.10;82.10;;;;;;5043408;28;20432;-73
2024/01/04 09:49:09;;;;;;;2.33;0.70;;;3.20;82.30;;;;;;5018452;28;20322;-73
2024/01/04 09:51:40;;;;;;;6.87;0.87;;;3.30;82.00;;;;;;5044999;28;20053;-74
2024/01/04 09:54:10;;;;;;;2.17;0.30;;;3.60;82.10;;;;;;5015902;28;20045;-73
2024/01/04 09:56:43;;;;;;;4.57;0.70;;;3.90;82.10;;;;;;5045754;28;20452;-73
2024/01/04 09:59:10;;;;;;;6.17;0.60;;;4.00;82.00;;;;;;5036042;28;20065;-73
2024/01/04 10:01:38;;;;;;;2.27;0.70;;;4.00;81.50;;;;;;5047139;28;20557;-73
2024/01/04 10:04:11;;;;;;;3.23;0.60;;;4.10;81.30;;;;;;5026013;28;20053;-73
2024/01/04 10:06:41;;;;;;;1.97;0.40;;;4.20;81.50;;;;;;5046759;28;20059;-73
2024/01/04 10:09:17;;;;;;;2.70;0.40;;;4.50;81.50;;;;;;5026809;28;20045;-74
2024/01/04 10:11:58;;;;;;;2.10;0.30;;;4.70;80.70;;;;;;5042587;28;21268;-74
2024/01/04 10:14:25;;;;;;;3.20;0.45;;;4.80;80.00;;;;;;5045744;28;20049;-74
2024/01/04 10:16:52;;;;;;;4.40;0.57;;;4.90;79.60;;;;;;5037017;28;20096;-76
2024/01/04 10:19:17;;;;;;;3.37;0.33;;;4.90;79.70;;;;;;5021434;28;20382;-73
2024/01/04 10:21:43;;;;;;;2.67;0.20;;;5.10;79.90;;;;;;5026132;28;20119;-73
2024/01/04 10:24:15;;;;;;;3.77;0.47;;;5.60;79.60;;;;;;5047876;28;20132;-73
2024/01/04 10:26:42;;;;;;;2.50;0.20;;;5.90;79.30;;;;;;5028975;28;20073;-73
2024/01/04 10:29:08;;;;;;;2.57;0.37;;;6.00;78.50;;;;;;5024927;28;20076;-73
2024/01/04 10:31:35;;;;;;;1.80;0.40;;;6.00;77.60;;;;;;5058916;28;20076;-73
2024/01/04 10:34:01;;;;;;;3.67;0.50;;;5.80;77.40;;;;;;5059915;28;20113;-72
2024/01/04 10:36:28;;;;;;;5.60;0.50;;;5.60;77.50;;;;;;5028557;28;20041;-72
2024/01/04 10:39:01;;;;;;;2.37;0.43;;;5.30;77.60;;;;;;4995641;28;20128;-72
2024/01/04 10:41:28;;;;;;;4.30;0.50;;;5.10;77.80;;;;;;5023709;28;20046;-73
2024/01/04 10:44:23;;;;;;;4.33;0.60;;;4.80;77.70;;;;;;5031631;28;20053;-75
2024/01/04 10:46:54;;;;;;;3.03;0.33;;;4.60;78.10;;;;;;4994558;28;20074;-74
2024/01/04 10:49:23;;;;;;;4.03;0.70;;;4.50;78.40;;;;;;5018518;28;20084;-73
2024/01/04 10:51:56;;;;;;;3.20;0.53;;;4.40;78.40;;;;;;5018206;28;20400;-73
2024/01/04 10:54:30;;;;;;;5.63;0.40;;;4.30;78.40;;;;;;5025249;28;20049;-73
2024/01/04 10:56:59;;;;;;;3.43;0.70;;;4.20;78.40;;;;;;5020504;28;20059;-72
2024/01/04 10:59:26;;;;;;;1.77;0.47;;;4.20;78.40;;;;;;5015885;28;20073;-74
2024/01/04 11:01:53;;;;;;;4.53;0.60;;;4.00;78.30;;;;;;5013899;28;20045;-73
2024/01/04 11:04:21;;;;;;;5.73;0.80;;;4.00;78.40;;;;;;5021735;28;20049;-72
2024/01/04 11:06:48;;;;;;;3.60;0.67;;;4.00;78.40;;;;;;5022335;28;20057;-71
2024/01/04 11:09:14;;;;;;;3.40;0.60;;;4.00;78.70;;;;;;5012203;28;20520;-73
2024/01/04 11:11:41;;;;;;;4.03;0.50;;;4.00;78.70;;;;;;5014470;28;20049;-72
2024/01/04 11:14:07;;;;;;;4.77;0.90;;;3.90;78.70;;;;;;5023034;28;20052;-72
2024/01/04 11:17:00;;;;;;;5.17;0.67;;;3.90;78.60;;;;;;5021716;28;20062;-73
2024/01/04 11:19:59;;;;;;;4.27;0.80;;;3.90;78.70;;;;;;5013048;28;20057;-73
2024/01/04 11:22:34;;;;;;;5.23;0.70;;;4.20;79.00;;;;;;5018656;28;20053;-73
2024/01/04 11:25:47;;;;;;;7.77;0.70;;;4.40;79.00;;;;;;5024690;28;20554;-73
2024/01/04 11:28:14;;;;;;;4.33;0.60;;;4.70;79.00;;;;;;4964578;28;20084;-74
2024/01/04 11:30:39;;;;;;;3.07;0.80;;;5.00;78.50;;;;;;5006365;28;20053;-73
2024/01/04 11:33:06;;;;;;;4.73;0.83;;;5.10;77.90;;;;;;5038166;28;20056;-73
2024/01/04 11:35:38;;;;;;;7.10;0.90;;;5.10;78.00;;;;;;5030866;28;20061;-74
2024/01/04 11:38:08;;;;;;;5.57;0.93;;;5.00;78.00;;;;;;5026418;28;20049;-73
2024/01/04 11:40:37;;;;;;;2.93;0.43;;;4.90;77.80;;;;;;5023500;28;20145;-72
2024/01/04 11:43:14;;;;;;;2.20;0.50;;;4.70;77.70;;;;;;5038447;28;20056;-74
2024/01/04 11:45:46;;;;;;;3.30;0.60;;;4.70;77.60;;;;;;5037709;28;20102;-72
2024/01/04 11:48:12;;;;;;;4.53;0.70;;;4.60;77.80;;;;;;5038604;28;20545;-72
2024/01/04 11:50:49;;;;;;;3.80;0.60;;;4.50;77.60;;;;;;5058033;28;20477;-73
2024/01/04 11:53:17;;;;;;;3.30;0.60;;;4.70;78.00;;;;;;5033464;28;20045;-72
2024/01/04 11:55:42;;;;;;;5.57;0.70;;;4.80;77.80;;;;;;5034339;28;20442;-72
2024/01/04 11:58:13;;;;;;;3.63;0.70;;;5.30;78.10;;;;;;5038542;28;20044;-73
2024/01/04 12:00:51;;;;;;;6.50;0.90;;;5.80;78.20;;;;;;5030239;28;20060;-73
2024/01/04 12:03:20;;;;;;;3.03;0.73;;;6.40;77.50;;;;;;5059989;28;20306;-72
2024/01/04 12:05:49;;;;;;;3.07;0.80;;;6.80;77.10;;;;;;5055598;28;20091;-73
2024/01/04 12:08:32;;;;;;;3.53;0.60;;;6.80;76.00;;;;;;5052232;28;20651;-73
2024/01/04 12:11:04;;;;;;;5.23;0.60;;;6.60;75.70;;;;;;5050471;28;20045;-73
2024/01/04 12:13:31;;;;;;;4.27;0.63;;;6.40;76.00;;;;;;5023173;28;20052;-73
2024/01/04 12:15:58;;;;;;;5.87;0.90;;;6.20;76.00;;;;;;5035462;28;20049;-74
2024/01/04 12:18:24;;;;;;;3.53;0.60;;;6.10;76.10;;;;;;5045537;28;20048;-74
2024/01/04 12:20:49;;;;;;;5.60;0.80;;;5.90;75.80;;;;;;5058679;28;20045;-73
2024/01/04 12:23:16;;;;;;;6.10;0.90;;;5.70;75.80;;;;;;5060953;28;20464;-72
2024/01/04 12:25:42;;;;;;;4.70;0.67;;;5.60;76.00;;;;;;5059290;28;20049;-72
2024/01/04 12:28:09;;;;;;;3.63;0.70;;;5.50;76.50;;;;;;5061314;28;20118;-72
2024/01/04 12:30:38;;;;;;;6.47;2.67;;;5.50;76.50;;;;;;5058123;28;20597;-73
2024/01/04 12:33:04;;;;;;;3.87;0.60;;;5.40;76.40;;;;;;5043989;28;20047;-72
2024/01/04 12:35:30;;;;;;;3.47;0.70;;;5.30;76.00;;;;;;5052831;28;20045;-72
2024/01/04 12:38:00;;;;;;;2.87;0.87;;;5.00;76.00;;;;;;5054155;28;20107;-72
2024/01/04 12:40:27;;;;;;;5.50;0.80;;;5.00;76.00;;;;;;5029291;28;20052;-72
2024/01/04 12:42:53;;;;;;;4.53;0.80;;;5.00;76.60;;;;;;5048269;28;20064;-75
2024/01/04 12:45:19;;;;;;;4.63;0.50;;;4.90;76.50;;;;;;5039482;28;20052;-72
2024/01/04 12:47:44;;;;;;;4.63;0.67;;;4.90;76.70;;;;;;5035561;28;20072;-72
2024/01/04 12:50:10;;;;;;;4.50;0.30;;;4.90;76.70;;;;;;5040166;28;20049;-72
2024/01/04 12:52:40;;;;;;;3.07;0.50;;;4.90;76.70;;;;;;5024326;28;20049;-72
2024/01/04 12:55:06;;;;;;;2.97;0.70;;;4.90;76.70;;;;;;5042824;28;20055;-72
2024/01/04 12:57:34;;;;;;;6.03;0.60;;;4.80;76.50;;;;;;5021428;28;20049;-73